sensor_id;sensor_type;location;lat;lon;timestamp;temperature;humidity
4759;DHT22;2393;50.560;12.636;2023-04-10T00:02:24;0.80;99.90
4759;DHT22;2393;50.560;12.636;2023-04-10T00:04:52;0.80;99.90
4759;DHT22;2393;50.560;12.636;2023-04-10T00:07:21;0.80;99.90
4759;DHT22;2393;50.560;12.636;2023-04-10T00:09:49;0.70;99.90
4759;DHT22;2393;50.560;12.636;2023-04-10T00:12:17;0.70;99.90
4759;DHT22;2393;50.560;12.636;2023-04-10T00:14:45;0.70;99.90
4759;DHT22;2393;50.560;12.636;2023-04-10T00:17:14;0.70;99.90
4759;DHT22;2393;50.560;12.636;2023-04-10T00:19:43;0.60;99.90
4759;DHT22;2393;50.560;12.636;2023-04-10T00:22:11;0.60;99.90
4759;DHT22;2393;50.560;12.636;2023-04-10T00:24:39;0.60;99.90
4759;DHT22;2393;50.560;12.636;2023-04-10T00:27:07;0.60;99.90
4759;DHT22;2393;50.560;12.636;2023-04-10T00:29:35;0.60;99.90
4759;DHT22;2393;50.560;12.636;2023-04-10T00:32:03;0.50;99.90
4759;DHT22;2393;50.560;12.636;2023-04-10T00:34:31;0.50;99.90
4759;DHT22;2393;50.560;12.636;2023-04-10T00:37:01;0.50;99.90
4759;DHT22;2393;50.560;12.636;2023-04-10T00:39:29;0.40;99.90
4759;DHT22;2393;50.560;12.636;2023-04-10T00:41:56;0.40;99.90
4759;DHT22;2393;50.560;12.636;2023-04-10T00:44:25;0.40;99.90
4759;DHT22;2393;50.560;12.636;2023-04-10T00:46:53;0.40;99.90
4759;DHT22;2393;50.560;12.636;2023-04-10T00:49:21;0.40;99.90
4759;DHT22;2393;50.560;12.636;2023-04-10T00:51:49;0.40;99.90
4759;DHT22;2393;50.560;12.636;2023-04-10T00:54:19;0.40;99.90
4759;DHT22;2393;50.560;12.636;2023-04-10T00:56:48;0.40;99.90
4759;DHT22;2393;50.560;12.636;2023-04-10T00:59:17;0.40;99.90
4759;DHT22;2393;50.560;12.636;2023-04-10T01:01:47;0.40;99.90
4759;DHT22;2393;50.560;12.636;2023-04-10T01:04:15;0.40;99.90
4759;DHT22;2393;50.560;12.636;2023-04-10T01:06:52;0.30;99.90
4759;DHT22;2393;50.560;12.636;2023-04-10T01:09:34;0.30;99.90
4759;DHT22;2393;50.560;12.636;2023-04-10T01:12:10;0.30;99.90
4759;DHT22;2393;50.560;12.636;2023-04-10T01:14:45;0.20;99.90
4759;DHT22;2393;50.560;12.636;2023-04-10T01:17:19;0.20;99.90
4759;DHT22;2393;50.560;12.636;2023-04-10T01:20:00;0.20;99.90
4759;DHT22;2393;50.560;12.636;2023-04-10T01:22:34;0.10;99.90
4759;DHT22;2393;50.560;12.636;2023-04-10T01:25:23;0.10;99.90
4759;DHT22;2393;50.560;12.636;2023-04-10T01:28:06;0.00;99.90
4759;DHT22;2393;50.560;12.636;2023-04-10T01:30:40;0.00;99.90
4759;DHT22;2393;50.560;12.636;2023-04-10T01:33:11;0.00;99.90
4759;DHT22;2393;50.560;12.636;2023-04-10T01:35:42;0.00;99.90
4759;DHT22;2393;50.560;12.636;2023-04-10T01:38:15;0.00;99.90
4759;DHT22;2393;50.560;12.636;2023-04-10T01:40:45;0.00;99.90
4759;DHT22;2393;50.560;12.636;2023-04-10T01:43:25;0.00;99.90
4759;DHT22;2393;50.560;12.636;2023-04-10T01:45:55;0.10;99.90
4759;DHT22;2393;50.560;12.636;2023-04-10T01:48:24;0.10;99.90
4759;DHT22;2393;50.560;12.636;2023-04-10T01:50:53;0.00;99.90
4759;DHT22;2393;50.560;12.636;2023-04-10T01:53:23;0.00;99.90
4759;DHT22;2393;50.560;12.636;2023-04-10T01:55:52;0.00;99.90
4759;DHT22;2393;50.560;12.636;2023-04-10T01:58:20;0.00;99.90
4759;DHT22;2393;50.560;12.636;2023-04-10T02:00:52;-0.10;99.90
4759;DHT22;2393;50.560;12.636;2023-04-10T02:03:21;-0.10;99.90
4759;DHT22;2393;50.560;12.636;2023-04-10T02:05:56;-0.10;99.90
4759;DHT22;2393;50.560;12.636;2023-04-10T02:08:33;-0.10;99.90
4759;DHT22;2393;50.560;12.636;2023-04-10T02:11:12;-0.20;99.90
4759;DHT22;2393;50.560;12.636;2023-04-10T02:13:42;-0.20;99.90
4759;DHT22;2393;50.560;12.636;2023-04-10T02:16:13;-0.30;99.90
4759;DHT22;2393;50.560;12.636;2023-04-10T02:18:45;-0.30;99.90
4759;DHT22;2393;50.560;12.636;2023-04-10T02:21:14;-0.30;99.90
4759;DHT22;2393;50.560;12.636;2023-04-10T02:23:43;-0.40;99.90
4759;DHT22;2393;50.560;12.636;2023-04-10T02:26:11;-0.40;99.90
4759;DHT22;2393;50.560;12.636;2023-04-10T02:28:39;-0.40;99.90
4759;DHT22;2393;50.560;12.636;2023-04-10T02:31:07;-0.30;99.90
4759;DHT22;2393;50.560;12.636;2023-04-10T02:33:35;-0.40;99.90
4759;DHT22;2393;50.560;12.636;2023-04-10T02:36:05;-0.40;99.90
4759;DHT22;2393;50.560;12.636;2023-04-10T02:38:34;-0.40;99.90
4759;DHT22;2393;50.560;12.636;2023-04-10T02:41:02;-0.40;99.90
4759;DHT22;2393;50.560;12.636;2023-04-10T02:43:30;-0.40;99.90
4759;DHT22;2393;50.560;12.636;2023-04-10T02:45:59;-0.40;99.90
4759;DHT22;2393;50.560;12.636;2023-04-10T02:48:32;-0.50;99.90
4759;DHT22;2393;50.560;12.636;2023-04-10T02:51:01;-0.50;99.90
4759;DHT22;2393;50.560;12.636;2023-04-10T02:53:32;-0.50;99.90
4759;DHT22;2393;50.560;12.636;2023-04-10T02:56:01;-0.50;99.90
4759;DHT22;2393;50.560;12.636;2023-04-10T02:58:29;-0.50;99.90
4759;DHT22;2393;50.560;12.636;2023-04-10T03:00:58;-0.50;99.90
4759;DHT22;2393;50.560;12.636;2023-04-10T03:03:38;-0.40;99.90
4759;DHT22;2393;50.560;12.636;2023-04-10T03:06:07;-0.40;99.90
4759;DHT22;2393;50.560;12.636;2023-04-10T03:08:39;-0.40;99.90
4759;DHT22;2393;50.560;12.636;2023-04-10T03:11:07;-0.50;99.90
4759;DHT22;2393;50.560;12.636;2023-04-10T03:13:35;-0.50;99.90
4759;DHT22;2393;50.560;12.636;2023-04-10T03:16:03;-0.50;99.90
4759;DHT22;2393;50.560;12.636;2023-04-10T03:18:32;-0.50;99.90
4759;DHT22;2393;50.560;12.636;2023-04-10T03:21:01;-0.60;99.90
4759;DHT22;2393;50.560;12.636;2023-04-10T03:23:29;-0.60;99.90
4759;DHT22;2393;50.560;12.636;2023-04-10T03:25:59;-0.60;99.90
4759;DHT22;2393;50.560;12.636;2023-04-10T03:28:29;-0.70;99.90
4759;DHT22;2393;50.560;12.636;2023-04-10T03:30:58;-0.70;99.90
4759;DHT22;2393;50.560;12.636;2023-04-10T03:33:30;-0.70;99.90
4759;DHT22;2393;50.560;12.636;2023-04-10T03:35:59;-0.70;99.90
4759;DHT22;2393;50.560;12.636;2023-04-10T03:38:27;-0.80;99.90
4759;DHT22;2393;50.560;12.636;2023-04-10T03:40:55;-0.80;99.90
4759;DHT22;2393;50.560;12.636;2023-04-10T03:43:28;-0.70;99.90
4759;DHT22;2393;50.560;12.636;2023-04-10T03:45:56;-0.70;99.90
4759;DHT22;2393;50.560;12.636;2023-04-10T03:48:25;-0.70;99.90
4759;DHT22;2393;50.560;12.636;2023-04-10T03:50:54;-0.80;99.90
4759;DHT22;2393;50.560;12.636;2023-04-10T03:53:22;-0.80;99.90
4759;DHT22;2393;50.560;12.636;2023-04-10T03:55:52;-0.80;99.90
4759;DHT22;2393;50.560;12.636;2023-04-10T03:58:21;-0.90;99.90
4759;DHT22;2393;50.560;12.636;2023-04-10T04:00:52;-0.90;99.90
4759;DHT22;2393;50.560;12.636;2023-04-10T04:03:29;-0.90;99.90
4759;DHT22;2393;50.560;12.636;2023-04-10T04:05:58;-0.90;99.90
4759;DHT22;2393;50.560;12.636;2023-04-10T04:08:52;-0.90;99.90
4759;DHT22;2393;50.560;12.636;2023-04-10T04:11:35;-0.90;99.90
4759;DHT22;2393;50.560;12.636;2023-04-10T04:14:42;-0.90;99.90
4759;DHT22;2393;50.560;12.636;2023-04-10T04:17:41;-1.00;99.90
4759;DHT22;2393;50.560;12.636;2023-04-10T04:20:09;-1.00;99.90
4759;DHT22;2393;50.560;12.636;2023-04-10T04:23:03;-1.00;99.90
4759;DHT22;2393;50.560;12.636;2023-04-10T04:25:43;-1.00;99.90
4759;DHT22;2393;50.560;12.636;2023-04-10T04:28:29;-1.00;99.90
4759;DHT22;2393;50.560;12.636;2023-04-10T04:31:16;-1.00;99.90
4759;DHT22;2393;50.560;12.636;2023-04-10T04:34:14;-0.90;99.90
4759;DHT22;2393;50.560;12.636;2023-04-10T04:36:46;-1.00;99.90
4759;DHT22;2393;50.560;12.636;2023-04-10T04:39:46;-1.00;99.90
4759;DHT22;2393;50.560;12.636;2023-04-10T04:42:23;-0.90;99.90
4759;DHT22;2393;50.560;12.636;2023-04-10T04:45:20;-0.90;99.90
4759;DHT22;2393;50.560;12.636;2023-04-10T04:48:05;-0.80;99.90
4759;DHT22;2393;50.560;12.636;2023-04-10T04:50:52;-0.80;99.90
4759;DHT22;2393;50.560;12.636;2023-04-10T04:53:58;-0.80;99.90
4759;DHT22;2393;50.560;12.636;2023-04-10T04:56:49;-0.70;99.90
4759;DHT22;2393;50.560;12.636;2023-04-10T04:59:50;-0.60;99.90
4759;DHT22;2393;50.560;12.636;2023-04-10T05:02:36;-0.30;99.90
4759;DHT22;2393;50.560;12.636;2023-04-10T05:05:23;0.20;99.90
4759;DHT22;2393;50.560;12.636;2023-04-10T05:08:04;0.90;99.90
4759;DHT22;2393;50.560;12.636;2023-04-10T05:10:42;1.40;99.90
4759;DHT22;2393;50.560;12.636;2023-04-10T05:13:33;1.80;99.90
4759;DHT22;2393;50.560;12.636;2023-04-10T05:16:22;2.10;99.90
4759;DHT22;2393;50.560;12.636;2023-04-10T05:19:11;2.20;99.90
4759;DHT22;2393;50.560;12.636;2023-04-10T05:21:52;2.30;99.90
4759;DHT22;2393;50.560;12.636;2023-04-10T05:24:37;2.40;99.90
4759;DHT22;2393;50.560;12.636;2023-04-10T05:27:13;2.70;99.90
4759;DHT22;2393;50.560;12.636;2023-04-10T05:30:03;3.00;99.90
4759;DHT22;2393;50.560;12.636;2023-04-10T05:32:42;3.60;99.90
4759;DHT22;2393;50.560;12.636;2023-04-10T05:35:28;4.30;99.90
4759;DHT22;2393;50.560;12.636;2023-04-10T05:38:17;5.20;99.90
4759;DHT22;2393;50.560;12.636;2023-04-10T05:40:58;5.90;99.90
4759;DHT22;2393;50.560;12.636;2023-04-10T05:43:37;6.60;99.90
4759;DHT22;2393;50.560;12.636;2023-04-10T05:46:31;7.10;99.90
4759;DHT22;2393;50.560;12.636;2023-04-10T05:49:18;7.60;99.90
4759;DHT22;2393;50.560;12.636;2023-04-10T05:51:55;8.10;99.90
4759;DHT22;2393;50.560;12.636;2023-04-10T05:54:49;8.70;99.90
4759;DHT22;2393;50.560;12.636;2023-04-10T05:57:45;9.30;99.90
4759;DHT22;2393;50.560;12.636;2023-04-10T06:00:22;9.80;99.90
4759;DHT22;2393;50.560;12.636;2023-04-10T06:03:30;10.30;99.90
4759;DHT22;2393;50.560;12.636;2023-04-10T06:06:00;10.80;99.90
4759;DHT22;2393;50.560;12.636;2023-04-10T06:08:30;11.10;99.90
4759;DHT22;2393;50.560;12.636;2023-04-10T06:10:58;11.60;99.90
4759;DHT22;2393;50.560;12.636;2023-04-10T06:13:28;11.80;99.90
4759;DHT22;2393;50.560;12.636;2023-04-10T06:15:58;12.00;99.90
4759;DHT22;2393;50.560;12.636;2023-04-10T06:18:28;12.20;99.90
4759;DHT22;2393;50.560;12.636;2023-04-10T06:20:56;12.60;99.90
4759;DHT22;2393;50.560;12.636;2023-04-10T06:23:27;12.80;99.90
4759;DHT22;2393;50.560;12.636;2023-04-10T06:25:55;13.10;99.90
4759;DHT22;2393;50.560;12.636;2023-04-10T06:28:23;13.30;99.90
4759;DHT22;2393;50.560;12.636;2023-04-10T06:30:56;13.60;99.90
4759;DHT22;2393;50.560;12.636;2023-04-10T06:33:33;13.90;99.90
4759;DHT22;2393;50.560;12.636;2023-04-10T06:36:04;14.20;99.90
4759;DHT22;2393;50.560;12.636;2023-04-10T06:38:37;14.40;99.90
4759;DHT22;2393;50.560;12.636;2023-04-10T06:41:06;14.50;99.90
4759;DHT22;2393;50.560;12.636;2023-04-10T06:43:34;14.70;99.90
4759;DHT22;2393;50.560;12.636;2023-04-10T06:46:05;14.90;99.90
4759;DHT22;2393;50.560;12.636;2023-04-10T06:48:33;15.00;99.90
4759;DHT22;2393;50.560;12.636;2023-04-10T06:51:02;15.20;99.90
4759;DHT22;2393;50.560;12.636;2023-04-10T06:53:30;15.40;99.90
4759;DHT22;2393;50.560;12.636;2023-04-10T06:55:58;15.60;99.90
4759;DHT22;2393;50.560;12.636;2023-04-10T06:58:29;15.80;99.90
4759;DHT22;2393;50.560;12.636;2023-04-10T07:00:57;15.90;99.90
4759;DHT22;2393;50.560;12.636;2023-04-10T07:03:31;15.80;99.90
4759;DHT22;2393;50.560;12.636;2023-04-10T07:05:59;15.60;99.90
4759;DHT22;2393;50.560;12.636;2023-04-10T07:08:29;15.00;99.90
4759;DHT22;2393;50.560;12.636;2023-04-10T07:10:57;14.80;99.90
4759;DHT22;2393;50.560;12.636;2023-04-10T07:13:25;14.50;99.90
4759;DHT22;2393;50.560;12.636;2023-04-10T07:15:53;14.30;99.90
4759;DHT22;2393;50.560;12.636;2023-04-10T07:18:21;14.10;99.90
4759;DHT22;2393;50.560;12.636;2023-04-10T07:20:51;13.90;99.90
4759;DHT22;2393;50.560;12.636;2023-04-10T07:23:19;13.70;99.90
4759;DHT22;2393;50.560;12.636;2023-04-10T07:25:48;13.70;99.90
4759;DHT22;2393;50.560;12.636;2023-04-10T07:28:17;13.90;99.90
4759;DHT22;2393;50.560;12.636;2023-04-10T07:30:45;14.00;99.90
4759;DHT22;2393;50.560;12.636;2023-04-10T07:33:14;14.00;99.90
4759;DHT22;2393;50.560;12.636;2023-04-10T07:35:43;14.10;99.90
4759;DHT22;2393;50.560;12.636;2023-04-10T07:38:12;14.20;99.90
4759;DHT22;2393;50.560;12.636;2023-04-10T07:40:40;14.40;99.90
4759;DHT22;2393;50.560;12.636;2023-04-10T07:43:08;14.60;99.90
4759;DHT22;2393;50.560;12.636;2023-04-10T07:45:36;14.70;99.90
4759;DHT22;2393;50.560;12.636;2023-04-10T07:48:05;14.70;99.90
4759;DHT22;2393;50.560;12.636;2023-04-10T07:50:33;14.80;99.90
4759;DHT22;2393;50.560;12.636;2023-04-10T07:53:01;14.90;99.90
4759;DHT22;2393;50.560;12.636;2023-04-10T07:55:38;14.80;99.90
4759;DHT22;2393;50.560;12.636;2023-04-10T07:58:06;14.70;99.90
4759;DHT22;2393;50.560;12.636;2023-04-10T08:00:34;15.00;99.90
4759;DHT22;2393;50.560;12.636;2023-04-10T08:03:03;15.20;99.90
4759;DHT22;2393;50.560;12.636;2023-04-10T08:05:31;15.20;99.90
4759;DHT22;2393;50.560;12.636;2023-04-10T08:07:59;15.30;99.90
4759;DHT22;2393;50.560;12.636;2023-04-10T08:10:27;15.20;99.90
4759;DHT22;2393;50.560;12.636;2023-04-10T08:12:57;15.30;99.90
4759;DHT22;2393;50.560;12.636;2023-04-10T08:15:25;15.10;99.90
4759;DHT22;2393;50.560;12.636;2023-04-10T08:17:53;15.30;99.90
4759;DHT22;2393;50.560;12.636;2023-04-10T08:20:21;15.20;99.90
4759;DHT22;2393;50.560;12.636;2023-04-10T08:22:49;15.30;99.90
4759;DHT22;2393;50.560;12.636;2023-04-10T08:25:17;15.60;99.90
4759;DHT22;2393;50.560;12.636;2023-04-10T08:27:45;15.80;99.90
4759;DHT22;2393;50.560;12.636;2023-04-10T08:30:14;16.00;99.90
4759;DHT22;2393;50.560;12.636;2023-04-10T08:32:42;16.10;99.90
4759;DHT22;2393;50.560;12.636;2023-04-10T08:35:10;15.80;99.00
4759;DHT22;2393;50.560;12.636;2023-04-10T08:37:38;15.90;99.00
4759;DHT22;2393;50.560;12.636;2023-04-10T08:40:07;15.90;99.90
4759;DHT22;2393;50.560;12.636;2023-04-10T08:42:35;16.10;99.50
4759;DHT22;2393;50.560;12.636;2023-04-10T08:45:04;15.90;98.50
4759;DHT22;2393;50.560;12.636;2023-04-10T08:47:35;15.90;99.90
4759;DHT22;2393;50.560;12.636;2023-04-10T08:50:07;15.90;98.30
4759;DHT22;2393;50.560;12.636;2023-04-10T08:52:42;16.10;98.10
4759;DHT22;2393;50.560;12.636;2023-04-10T08:55:12;16.30;98.90
4759;DHT22;2393;50.560;12.636;2023-04-10T08:57:41;16.30;98.10
4759;DHT22;2393;50.560;12.636;2023-04-10T09:00:24;16.10;98.80
4759;DHT22;2393;50.560;12.636;2023-04-10T09:02:53;16.10;99.30
4759;DHT22;2393;50.560;12.636;2023-04-10T09:05:26;16.30;99.70
4759;DHT22;2393;50.560;12.636;2023-04-10T09:07:54;15.80;97.60
4759;DHT22;2393;50.560;12.636;2023-04-10T09:10:22;15.80;97.50
4759;DHT22;2393;50.560;12.636;2023-04-10T09:12:51;15.90;99.30
4759;DHT22;2393;50.560;12.636;2023-04-10T09:15:19;15.80;99.40
4759;DHT22;2393;50.560;12.636;2023-04-10T09:17:55;16.10;98.40
4759;DHT22;2393;50.560;12.636;2023-04-10T09:20:25;16.50;99.20
4759;DHT22;2393;50.560;12.636;2023-04-10T09:22:53;16.00;99.40
4759;DHT22;2393;50.560;12.636;2023-04-10T09:25:31;16.00;96.30
4759;DHT22;2393;50.560;12.636;2023-04-10T09:28:01;15.60;98.40
4759;DHT22;2393;50.560;12.636;2023-04-10T09:30:34;15.50;98.50
4759;DHT22;2393;50.560;12.636;2023-04-10T09:33:20;15.80;99.90
4759;DHT22;2393;50.560;12.636;2023-04-10T09:35:48;16.00;99.30
4759;DHT22;2393;50.560;12.636;2023-04-10T09:38:18;16.00;98.30
4759;DHT22;2393;50.560;12.636;2023-04-10T09:40:47;16.30;98.30
4759;DHT22;2393;50.560;12.636;2023-04-10T09:43:16;16.40;97.60
4759;DHT22;2393;50.560;12.636;2023-04-10T09:45:50;16.50;97.90
4759;DHT22;2393;50.560;12.636;2023-04-10T09:48:20;16.50;97.90
4759;DHT22;2393;50.560;12.636;2023-04-10T09:50:49;16.50;96.90
4759;DHT22;2393;50.560;12.636;2023-04-10T09:53:19;16.70;98.90
4759;DHT22;2393;50.560;12.636;2023-04-10T09:55:48;16.70;97.00
4759;DHT22;2393;50.560;12.636;2023-04-10T09:58:17;16.70;96.60
4759;DHT22;2393;50.560;12.636;2023-04-10T10:00:48;16.80;96.60
4759;DHT22;2393;50.560;12.636;2023-04-10T10:03:18;16.60;97.40
4759;DHT22;2393;50.560;12.636;2023-04-10T10:05:49;16.70;95.60
4759;DHT22;2393;50.560;12.636;2023-04-10T10:08:17;16.80;94.00
4759;DHT22;2393;50.560;12.636;2023-04-10T10:10:47;17.10;95.70
4759;DHT22;2393;50.560;12.636;2023-04-10T10:13:23;17.30;96.10
4759;DHT22;2393;50.560;12.636;2023-04-10T10:15:57;17.40;96.70
4759;DHT22;2393;50.560;12.636;2023-04-10T10:18:34;17.20;95.00
4759;DHT22;2393;50.560;12.636;2023-04-10T10:21:08;17.00;94.40
4759;DHT22;2393;50.560;12.636;2023-04-10T10:23:37;17.20;93.50
4759;DHT22;2393;50.560;12.636;2023-04-10T10:26:05;17.50;92.60
4759;DHT22;2393;50.560;12.636;2023-04-10T10:28:34;17.60;94.10
4759;DHT22;2393;50.560;12.636;2023-04-10T10:31:03;17.30;93.70
4759;DHT22;2393;50.560;12.636;2023-04-10T10:33:32;17.50;95.40
4759;DHT22;2393;50.560;12.636;2023-04-10T10:36:03;17.70;94.30
4759;DHT22;2393;50.560;12.636;2023-04-10T10:38:33;17.60;93.10
4759;DHT22;2393;50.560;12.636;2023-04-10T10:41:08;17.50;91.90
4759;DHT22;2393;50.560;12.636;2023-04-10T10:43:52;17.60;94.30
4759;DHT22;2393;50.560;12.636;2023-04-10T10:46:33;17.60;93.60
4759;DHT22;2393;50.560;12.636;2023-04-10T10:49:02;17.20;92.10
4759;DHT22;2393;50.560;12.636;2023-04-10T10:51:45;17.30;93.10
4759;DHT22;2393;50.560;12.636;2023-04-10T10:54:31;17.30;92.40
4759;DHT22;2393;50.560;12.636;2023-04-10T10:57:00;17.30;92.80
4759;DHT22;2393;50.560;12.636;2023-04-10T10:59:53;17.20;92.90
4759;DHT22;2393;50.560;12.636;2023-04-10T11:02:23;17.10;93.30
4759;DHT22;2393;50.560;12.636;2023-04-10T11:04:51;17.20;91.20
4759;DHT22;2393;50.560;12.636;2023-04-10T11:07:19;16.90;91.70
4759;DHT22;2393;50.560;12.636;2023-04-10T11:09:53;17.00;91.90
4759;DHT22;2393;50.560;12.636;2023-04-10T11:12:24;17.00;91.00
4759;DHT22;2393;50.560;12.636;2023-04-10T11:14:56;16.80;92.50
4759;DHT22;2393;50.560;12.636;2023-04-10T11:17:50;16.70;92.20
4759;DHT22;2393;50.560;12.636;2023-04-10T11:20:20;16.70;92.70
4759;DHT22;2393;50.560;12.636;2023-04-10T11:23:06;16.40;91.50
4759;DHT22;2393;50.560;12.636;2023-04-10T11:25:48;16.20;93.30
4759;DHT22;2393;50.560;12.636;2023-04-10T11:28:34;16.20;92.90
4759;DHT22;2393;50.560;12.636;2023-04-10T11:31:19;16.20;93.40
4759;DHT22;2393;50.560;12.636;2023-04-10T11:33:59;16.30;92.40
4759;DHT22;2393;50.560;12.636;2023-04-10T11:36:28;16.40;92.10
4759;DHT22;2393;50.560;12.636;2023-04-10T11:38:59;16.60;91.30
4759;DHT22;2393;50.560;12.636;2023-04-10T11:41:31;16.70;92.20
4759;DHT22;2393;50.560;12.636;2023-04-10T11:44:01;16.90;92.60
4759;DHT22;2393;50.560;12.636;2023-04-10T11:46:30;17.00;92.30
4759;DHT22;2393;50.560;12.636;2023-04-10T11:48:59;16.90;92.40
4759;DHT22;2393;50.560;12.636;2023-04-10T11:51:28;16.90;92.80
4759;DHT22;2393;50.560;12.636;2023-04-10T11:54:05;16.80;91.20
4759;DHT22;2393;50.560;12.636;2023-04-10T11:56:36;16.30;90.60
4759;DHT22;2393;50.560;12.636;2023-04-10T11:59:05;16.10;92.00
4759;DHT22;2393;50.560;12.636;2023-04-10T12:01:37;16.00;92.50
4759;DHT22;2393;50.560;12.636;2023-04-10T12:04:13;16.00;91.20
4759;DHT22;2393;50.560;12.636;2023-04-10T12:06:44;16.40;93.60
4759;DHT22;2393;50.560;12.636;2023-04-10T12:09:13;16.60;92.80
4759;DHT22;2393;50.560;12.636;2023-04-10T12:11:52;16.40;91.30
4759;DHT22;2393;50.560;12.636;2023-04-10T12:14:21;16.40;90.30
4759;DHT22;2393;50.560;12.636;2023-04-10T12:16:50;16.40;91.90
4759;DHT22;2393;50.560;12.636;2023-04-10T12:19:19;16.20;92.50
4759;DHT22;2393;50.560;12.636;2023-04-10T12:21:50;16.20;95.00
4759;DHT22;2393;50.560;12.636;2023-04-10T12:24:41;16.40;92.70
4759;DHT22;2393;50.560;12.636;2023-04-10T12:27:16;16.10;92.70
4759;DHT22;2393;50.560;12.636;2023-04-10T12:29:45;16.30;94.00
4759;DHT22;2393;50.560;12.636;2023-04-10T12:32:13;16.40;92.60
4759;DHT22;2393;50.560;12.636;2023-04-10T12:34:41;16.40;91.50
4759;DHT22;2393;50.560;12.636;2023-04-10T12:37:16;16.40;92.50
4759;DHT22;2393;50.560;12.636;2023-04-10T12:39:44;16.50;93.60
4759;DHT22;2393;50.560;12.636;2023-04-10T12:42:13;16.60;93.20
4759;DHT22;2393;50.560;12.636;2023-04-10T12:44:57;16.60;91.70
4759;DHT22;2393;50.560;12.636;2023-04-10T12:47:27;16.60;92.70
4759;DHT22;2393;50.560;12.636;2023-04-10T12:50:02;16.30;93.80
4759;DHT22;2393;50.560;12.636;2023-04-10T12:52:30;16.50;93.20
4759;DHT22;2393;50.560;12.636;2023-04-10T12:55:11;16.20;91.10
4759;DHT22;2393;50.560;12.636;2023-04-10T12:57:40;16.30;93.50
4759;DHT22;2393;50.560;12.636;2023-04-10T13:00:12;16.40;92.30
4759;DHT22;2393;50.560;12.636;2023-04-10T13:02:40;16.60;92.30
4759;DHT22;2393;50.560;12.636;2023-04-10T13:05:09;16.70;91.80
4759;DHT22;2393;50.560;12.636;2023-04-10T13:07:38;16.70;91.20
4759;DHT22;2393;50.560;12.636;2023-04-10T13:10:07;16.60;92.20
4759;DHT22;2393;50.560;12.636;2023-04-10T13:12:36;16.30;91.40
4759;DHT22;2393;50.560;12.636;2023-04-10T13:15:06;16.10;90.50
4759;DHT22;2393;50.560;12.636;2023-04-10T13:17:35;16.00;91.20
4759;DHT22;2393;50.560;12.636;2023-04-10T13:20:04;16.00;93.00
4759;DHT22;2393;50.560;12.636;2023-04-10T13:22:33;15.80;92.60
4759;DHT22;2393;50.560;12.636;2023-04-10T13:25:02;15.90;90.70
4759;DHT22;2393;50.560;12.636;2023-04-10T13:27:30;15.90;91.30
4759;DHT22;2393;50.560;12.636;2023-04-10T13:29:58;15.90;91.10
4759;DHT22;2393;50.560;12.636;2023-04-10T13:32:26;16.20;92.30
4759;DHT22;2393;50.560;12.636;2023-04-10T13:34:56;16.40;90.50
4759;DHT22;2393;50.560;12.636;2023-04-10T13:37:24;16.40;89.40
4759;DHT22;2393;50.560;12.636;2023-04-10T13:39:53;16.40;91.00
4759;DHT22;2393;50.560;12.636;2023-04-10T13:42:21;16.60;91.80
4759;DHT22;2393;50.560;12.636;2023-04-10T13:44:49;16.80;91.20
4759;DHT22;2393;50.560;12.636;2023-04-10T13:47:17;16.60;89.70
4759;DHT22;2393;50.560;12.636;2023-04-10T13:49:45;16.70;90.30
4759;DHT22;2393;50.560;12.636;2023-04-10T13:52:14;16.70;90.40
4759;DHT22;2393;50.560;12.636;2023-04-10T13:54:42;16.80;91.70
4759;DHT22;2393;50.560;12.636;2023-04-10T13:57:10;16.80;91.20
4759;DHT22;2393;50.560;12.636;2023-04-10T13:59:38;16.90;90.60
4759;DHT22;2393;50.560;12.636;2023-04-10T14:02:08;17.20;89.90
4759;DHT22;2393;50.560;12.636;2023-04-10T14:04:36;17.30;91.40
4759;DHT22;2393;50.560;12.636;2023-04-10T14:07:04;17.40;89.40
4759;DHT22;2393;50.560;12.636;2023-04-10T14:09:34;17.30;89.00
4759;DHT22;2393;50.560;12.636;2023-04-10T14:12:02;17.20;87.50
4759;DHT22;2393;50.560;12.636;2023-04-10T14:14:30;17.10;87.10
4759;DHT22;2393;50.560;12.636;2023-04-10T14:16:58;16.90;88.00
4759;DHT22;2393;50.560;12.636;2023-04-10T14:19:26;16.60;88.30
4759;DHT22;2393;50.560;12.636;2023-04-10T14:21:54;16.70;87.90
4759;DHT22;2393;50.560;12.636;2023-04-10T14:24:22;16.50;89.90
4759;DHT22;2393;50.560;12.636;2023-04-10T14:26:52;16.30;87.20
4759;DHT22;2393;50.560;12.636;2023-04-10T14:29:24;16.30;90.90
4759;DHT22;2393;50.560;12.636;2023-04-10T14:32:05;16.20;91.00
4759;DHT22;2393;50.560;12.636;2023-04-10T14:34:33;16.20;90.20
4759;DHT22;2393;50.560;12.636;2023-04-10T14:37:01;16.10;90.00
4759;DHT22;2393;50.560;12.636;2023-04-10T14:39:29;16.10;90.20
4759;DHT22;2393;50.560;12.636;2023-04-10T14:42:00;16.00;90.70
4759;DHT22;2393;50.560;12.636;2023-04-10T14:44:29;15.80;91.30
4759;DHT22;2393;50.560;12.636;2023-04-10T14:46:57;15.90;91.70
4759;DHT22;2393;50.560;12.636;2023-04-10T14:49:25;15.70;90.60
4759;DHT22;2393;50.560;12.636;2023-04-10T14:51:53;15.70;91.00
4759;DHT22;2393;50.560;12.636;2023-04-10T14:54:21;15.90;92.20
4759;DHT22;2393;50.560;12.636;2023-04-10T14:56:50;15.90;92.20
4759;DHT22;2393;50.560;12.636;2023-04-10T14:59:20;15.90;90.50
4759;DHT22;2393;50.560;12.636;2023-04-10T15:01:48;16.00;91.60
4759;DHT22;2393;50.560;12.636;2023-04-10T15:04:16;16.00;90.30
4759;DHT22;2393;50.560;12.636;2023-04-10T15:06:44;15.90;90.30
4759;DHT22;2393;50.560;12.636;2023-04-10T15:09:12;15.70;90.70
4759;DHT22;2393;50.560;12.636;2023-04-10T15:11:40;15.70;90.50
4759;DHT22;2393;50.560;12.636;2023-04-10T15:14:08;15.60;91.40
4759;DHT22;2393;50.560;12.636;2023-04-10T15:16:39;15.70;89.40
4759;DHT22;2393;50.560;12.636;2023-04-10T15:19:07;15.70;90.60
4759;DHT22;2393;50.560;12.636;2023-04-10T15:21:35;15.60;90.70
4759;DHT22;2393;50.560;12.636;2023-04-10T15:24:04;15.50;91.80
4759;DHT22;2393;50.560;12.636;2023-04-10T15:26:32;15.50;91.10
4759;DHT22;2393;50.560;12.636;2023-04-10T15:29:00;15.50;91.40
4759;DHT22;2393;50.560;12.636;2023-04-10T15:31:29;15.50;90.40
4759;DHT22;2393;50.560;12.636;2023-04-10T15:33:58;15.50;91.90
4759;DHT22;2393;50.560;12.636;2023-04-10T15:36:26;15.30;90.10
4759;DHT22;2393;50.560;12.636;2023-04-10T15:38:54;15.10;90.00
4759;DHT22;2393;50.560;12.636;2023-04-10T15:41:24;15.10;90.20
4759;DHT22;2393;50.560;12.636;2023-04-10T15:43:53;14.90;90.80
4759;DHT22;2393;50.560;12.636;2023-04-10T15:46:21;14.80;90.50
4759;DHT22;2393;50.560;12.636;2023-04-10T15:48:49;14.70;90.30
4759;DHT22;2393;50.560;12.636;2023-04-10T15:51:19;14.60;91.30
4759;DHT22;2393;50.560;12.636;2023-04-10T15:53:47;14.60;91.10
4759;DHT22;2393;50.560;12.636;2023-04-10T15:56:15;14.50;91.20
4759;DHT22;2393;50.560;12.636;2023-04-10T15:58:43;14.50;91.80
4759;DHT22;2393;50.560;12.636;2023-04-10T16:01:11;14.50;92.50
4759;DHT22;2393;50.560;12.636;2023-04-10T16:03:39;14.30;90.80
4759;DHT22;2393;50.560;12.636;2023-04-10T16:06:07;14.10;91.80
4759;DHT22;2393;50.560;12.636;2023-04-10T16:08:37;14.10;91.70
4759;DHT22;2393;50.560;12.636;2023-04-10T16:11:05;14.10;91.90
4759;DHT22;2393;50.560;12.636;2023-04-10T16:13:33;14.00;92.40
4759;DHT22;2393;50.560;12.636;2023-04-10T16:16:01;13.90;91.70
4759;DHT22;2393;50.560;12.636;2023-04-10T16:18:30;13.90;92.60
4759;DHT22;2393;50.560;12.636;2023-04-10T16:20:58;13.90;92.30
4759;DHT22;2393;50.560;12.636;2023-04-10T16:23:26;13.70;92.30